KHHG

Details ICAO KHHG
Name HUNTINGTON MUNI
Region United States
Timezone America/Indiana/Indianapolis (UTC-5.0)
Plans Departing 7
Arriving 6
Stats Elevation 806 ft / 246 m (AMSL)
Location 40.852919° -85.457074°
Runways 1
Magnetic Variation 5.449° W
Sunrise 2017-12-18 13:02:39 UTC / 2017-12-18 08:02:39 Local
Sunset 2017-12-18 22:17:10 UTC / 2017-12-18 17:17:10 Local
Advertisement - Login to hide

Runways

ID Width Length Bearing (true) Bearing (mag) Surface Threshold Offset Overrun Length
09 75 ft / 23 m 4,990 ft / 1,521 m 92.20° 97.65° Asphalt 0 ft / 0 m 0 ft / 0 m
27 75 ft / 23 m 4,990 ft / 1,521 m 272.21° 277.66° Asphalt 0 ft / 0 m 0 ft / 0 m

Map

Weather


0- 5 10 15 20 25 30 35+ Temperature / ° C

Clouds and Precipitation
Forecast for 2017-12-18 18:00 UTC. Updated an hour ago

Ground ~20,000 ft ~40,000 ft Winds

METAR

KHHG 181635Z AUTO 24008KT 4SM BR OVC003 06/05 A2999 RMK AO2 T00550050 TSNO

TAF

Not found

Frequencies

Unicom 122.80 MHz CTAF/UNICOM
Approach 127.20 MHz FORT WAYNE APP/DEP
Warning: Do not use this data for real-world aviation or navigation. No guarantee of current accuracy is given.